sensor_id;sensor_type;location;lat;lon;timestamp;P1;durP1;ratioP1;P2;durP2;ratioP2
17598;SDS011;8918;52.092;5.232;2023-08-06T00:02:23;10.88;;;7.68;;
17598;SDS011;8918;52.092;5.232;2023-08-06T00:04:48;10.45;;;7.72;;
17598;SDS011;8918;52.092;5.232;2023-08-06T00:07:14;10.32;;;7.88;;
17598;SDS011;8918;52.092;5.232;2023-08-06T00:09:39;9.30;;;7.70;;
17598;SDS011;8918;52.092;5.232;2023-08-06T00:12:05;11.32;;;8.70;;
17598;SDS011;8918;52.092;5.232;2023-08-06T00:14:31;11.30;;;8.05;;
17598;SDS011;8918;52.092;5.232;2023-08-06T00:16:56;8.57;;;7.53;;
17598;SDS011;8918;52.092;5.232;2023-08-06T00:19:22;10.75;;;7.47;;
17598;SDS011;8918;52.092;5.232;2023-08-06T00:21:47;9.10;;;7.55;;
17598;SDS011;8918;52.092;5.232;2023-08-06T00:24:13;8.50;;;7.47;;
17598;SDS011;8918;52.092;5.232;2023-08-06T00:26:39;10.90;;;7.97;;
17598;SDS011;8918;52.092;5.232;2023-08-06T00:29:04;11.15;;;8.35;;
17598;SDS011;8918;52.092;5.232;2023-08-06T00:31:30;10.80;;;7.72;;
17598;SDS011;8918;52.092;5.232;2023-08-06T00:33:55;10.25;;;7.93;;
17598;SDS011;8918;52.092;5.232;2023-08-06T00:36:21;9.93;;;7.88;;
17598;SDS011;8918;52.092;5.232;2023-08-06T00:38:47;11.85;;;7.60;;
17598;SDS011;8918;52.092;5.232;2023-08-06T00:41:12;9.52;;;7.55;;
17598;SDS011;8918;52.092;5.232;2023-08-06T00:43:38;8.35;;;6.90;;
17598;SDS011;8918;52.092;5.232;2023-08-06T00:46:04;8.93;;;7.18;;
17598;SDS011;8918;52.092;5.232;2023-08-06T00:48:30;9.77;;;7.57;;
17598;SDS011;8918;52.092;5.232;2023-08-06T00:50:56;9.93;;;8.10;;
17598;SDS011;8918;52.092;5.232;2023-08-06T00:53:23;8.25;;;7.20;;
17598;SDS011;8918;52.092;5.232;2023-08-06T00:55:49;8.95;;;7.68;;
17598;SDS011;8918;52.092;5.232;2023-08-06T00:58:16;8.73;;;7.82;;
17598;SDS011;8918;52.092;5.232;2023-08-06T01:00:41;9.50;;;7.50;;
17598;SDS011;8918;52.092;5.232;2023-08-06T01:03:07;13.48;;;8.73;;
17598;SDS011;8918;52.092;5.232;2023-08-06T01:05:33;11.43;;;7.85;;
17598;SDS011;8918;52.092;5.232;2023-08-06T01:08:08;9.73;;;7.70;;
17598;SDS011;8918;52.092;5.232;2023-08-06T01:13:23;10.05;;;8.18;;
17598;SDS011;8918;52.092;5.232;2023-08-06T01:16:06;8.18;;;7.38;;
17598;SDS011;8918;52.092;5.232;2023-08-06T01:18:34;10.23;;;8.18;;
17598;SDS011;8918;52.092;5.232;2023-08-06T01:21:00;9.43;;;7.70;;
17598;SDS011;8918;52.092;5.232;2023-08-06T01:23:26;9.30;;;7.57;;
17598;SDS011;8918;52.092;5.232;2023-08-06T01:25:56;10.93;;;7.40;;
17598;SDS011;8918;52.092;5.232;2023-08-06T01:31:10;8.57;;;7.03;;
17598;SDS011;8918;52.092;5.232;2023-08-06T01:33:55;10.23;;;7.35;;
17598;SDS011;8918;52.092;5.232;2023-08-06T01:36:23;8.93;;;7.78;;
17598;SDS011;8918;52.092;5.232;2023-08-06T01:38:49;11.10;;;7.50;;
17598;SDS011;8918;52.092;5.232;2023-08-06T01:41:19;8.98;;;7.47;;
17598;SDS011;8918;52.092;5.232;2023-08-06T01:43:44;11.02;;;7.30;;
17598;SDS011;8918;52.092;5.232;2023-08-06T01:46:10;9.25;;;6.90;;
17598;SDS011;8918;52.092;5.232;2023-08-06T01:48:37;8.45;;;6.95;;
17598;SDS011;8918;52.092;5.232;2023-08-06T01:51:05;8.57;;;7.18;;
17598;SDS011;8918;52.092;5.232;2023-08-06T01:53:32;9.23;;;7.18;;
17598;SDS011;8918;52.092;5.232;2023-08-06T01:55:57;8.20;;;7.15;;
17598;SDS011;8918;52.092;5.232;2023-08-06T01:58:23;10.80;;;7.97;;
17598;SDS011;8918;52.092;5.232;2023-08-06T02:00:49;9.80;;;7.78;;
17598;SDS011;8918;52.092;5.232;2023-08-06T02:03:15;9.30;;;7.45;;
17598;SDS011;8918;52.092;5.232;2023-08-06T02:05:40;8.65;;;7.63;;
17598;SDS011;8918;52.092;5.232;2023-08-06T02:08:07;8.48;;;7.35;;
17598;SDS011;8918;52.092;5.232;2023-08-06T02:10:33;9.15;;;7.90;;
17598;SDS011;8918;52.092;5.232;2023-08-06T02:12:58;8.95;;;7.43;;
17598;SDS011;8918;52.092;5.232;2023-08-06T02:15:24;11.10;;;8.02;;
17598;SDS011;8918;52.092;5.232;2023-08-06T02:17:50;9.07;;;7.68;;
17598;SDS011;8918;52.092;5.232;2023-08-06T02:20:15;9.13;;;7.35;;
17598;SDS011;8918;52.092;5.232;2023-08-06T02:22:41;9.18;;;7.95;;
17598;SDS011;8918;52.092;5.232;2023-08-06T02:25:07;9.10;;;7.70;;
17598;SDS011;8918;52.092;5.232;2023-08-06T02:27:32;11.02;;;7.72;;
17598;SDS011;8918;52.092;5.232;2023-08-06T02:29:58;8.98;;;7.70;;
17598;SDS011;8918;52.092;5.232;2023-08-06T02:32:24;9.38;;;7.88;;
17598;SDS011;8918;52.092;5.232;2023-08-06T02:34:49;11.35;;;8.18;;
17598;SDS011;8918;52.092;5.232;2023-08-06T02:37:15;8.98;;;7.78;;
17598;SDS011;8918;52.092;5.232;2023-08-06T02:39:40;10.45;;;8.50;;
17598;SDS011;8918;52.092;5.232;2023-08-06T02:42:06;11.73;;;8.68;;
17598;SDS011;8918;52.092;5.232;2023-08-06T02:44:32;9.13;;;7.68;;
17598;SDS011;8918;52.092;5.232;2023-08-06T02:46:58;11.50;;;8.48;;
17598;SDS011;8918;52.092;5.232;2023-08-06T02:49:24;10.95;;;8.50;;
17598;SDS011;8918;52.092;5.232;2023-08-06T02:51:50;9.10;;;8.07;;
17598;SDS011;8918;52.092;5.232;2023-08-06T02:54:16;11.50;;;8.98;;
17598;SDS011;8918;52.092;5.232;2023-08-06T02:56:47;10.70;;;8.45;;
17598;SDS011;8918;52.092;5.232;2023-08-06T02:59:13;10.50;;;8.95;;
17598;SDS011;8918;52.092;5.232;2023-08-06T03:01:38;10.65;;;8.45;;
17598;SDS011;8918;52.092;5.232;2023-08-06T03:04:04;11.40;;;8.82;;
17598;SDS011;8918;52.092;5.232;2023-08-06T03:06:30;10.50;;;8.90;;
17598;SDS011;8918;52.092;5.232;2023-08-06T03:08:58;10.27;;;9.15;;
17598;SDS011;8918;52.092;5.232;2023-08-06T03:11:24;9.82;;;8.50;;
17598;SDS011;8918;52.092;5.232;2023-08-06T03:13:50;11.65;;;9.57;;
17598;SDS011;8918;52.092;5.232;2023-08-06T03:16:15;11.60;;;10.30;;
17598;SDS011;8918;52.092;5.232;2023-08-06T03:18:41;10.60;;;9.30;;
17598;SDS011;8918;52.092;5.232;2023-08-06T03:21:06;10.98;;;9.75;;
17598;SDS011;8918;52.092;5.232;2023-08-06T03:23:32;13.27;;;10.85;;
17598;SDS011;8918;52.092;5.232;2023-08-06T03:26:01;11.25;;;9.73;;
17598;SDS011;8918;52.092;5.232;2023-08-06T03:28:27;11.68;;;10.40;;
17598;SDS011;8918;52.092;5.232;2023-08-06T03:31:02;12.75;;;10.48;;
17598;SDS011;8918;52.092;5.232;2023-08-06T03:33:29;12.35;;;10.40;;
17598;SDS011;8918;52.092;5.232;2023-08-06T03:35:55;12.30;;;10.55;;
17598;SDS011;8918;52.092;5.232;2023-08-06T03:38:21;13.40;;;11.95;;
17598;SDS011;8918;52.092;5.232;2023-08-06T03:40:47;12.13;;;10.82;;
17598;SDS011;8918;52.092;5.232;2023-08-06T03:43:13;12.55;;;11.15;;
17598;SDS011;8918;52.092;5.232;2023-08-06T03:45:40;12.30;;;10.85;;
17598;SDS011;8918;52.092;5.232;2023-08-06T03:48:06;14.82;;;11.45;;
17598;SDS011;8918;52.092;5.232;2023-08-06T03:50:32;12.88;;;11.45;;
17598;SDS011;8918;52.092;5.232;2023-08-06T03:52:57;13.10;;;11.80;;
17598;SDS011;8918;52.092;5.232;2023-08-06T03:55:23;14.80;;;11.63;;
17598;SDS011;8918;52.092;5.232;2023-08-06T03:57:49;13.10;;;11.48;;
17598;SDS011;8918;52.092;5.232;2023-08-06T04:00:15;12.27;;;10.85;;
17598;SDS011;8918;52.092;5.232;2023-08-06T04:02:40;12.65;;;11.07;;
17598;SDS011;8918;52.092;5.232;2023-08-06T04:05:06;12.88;;;11.48;;
17598;SDS011;8918;52.092;5.232;2023-08-06T04:07:32;13.75;;;11.65;;
17598;SDS011;8918;52.092;5.232;2023-08-06T04:09:58;12.30;;;11.00;;
17598;SDS011;8918;52.092;5.232;2023-08-06T04:12:25;12.77;;;10.98;;
17598;SDS011;8918;52.092;5.232;2023-08-06T04:14:51;14.30;;;11.57;;
17598;SDS011;8918;52.092;5.232;2023-08-06T04:17:17;14.85;;;11.52;;
17598;SDS011;8918;52.092;5.232;2023-08-06T04:19:47;12.52;;;10.82;;
17598;SDS011;8918;52.092;5.232;2023-08-06T04:22:15;13.73;;;11.30;;
17598;SDS011;8918;52.092;5.232;2023-08-06T04:24:41;12.32;;;10.57;;
17598;SDS011;8918;52.092;5.232;2023-08-06T04:27:08;12.43;;;10.80;;
17598;SDS011;8918;52.092;5.232;2023-08-06T04:29:34;11.88;;;10.18;;
17598;SDS011;8918;52.092;5.232;2023-08-06T04:32:00;11.68;;;10.45;;
17598;SDS011;8918;52.092;5.232;2023-08-06T04:34:26;11.55;;;9.80;;
17598;SDS011;8918;52.092;5.232;2023-08-06T04:36:51;12.23;;;10.05;;
17598;SDS011;8918;52.092;5.232;2023-08-06T04:39:17;13.55;;;10.55;;
17598;SDS011;8918;52.092;5.232;2023-08-06T04:41:43;12.88;;;11.15;;
17598;SDS011;8918;52.092;5.232;2023-08-06T04:44:09;11.65;;;10.05;;
17598;SDS011;8918;52.092;5.232;2023-08-06T04:46:34;11.50;;;9.90;;
17598;SDS011;8918;52.092;5.232;2023-08-06T04:49:00;14.15;;;10.10;;
17598;SDS011;8918;52.092;5.232;2023-08-06T04:51:25;13.07;;;10.23;;
17598;SDS011;8918;52.092;5.232;2023-08-06T04:53:51;13.48;;;10.60;;
17598;SDS011;8918;52.092;5.232;2023-08-06T04:56:17;12.52;;;10.57;;
17598;SDS011;8918;52.092;5.232;2023-08-06T04:58:42;11.30;;;10.10;;
17598;SDS011;8918;52.092;5.232;2023-08-06T05:01:08;15.85;;;10.60;;
17598;SDS011;8918;52.092;5.232;2023-08-06T05:03:33;10.90;;;9.80;;
17598;SDS011;8918;52.092;5.232;2023-08-06T05:05:59;11.48;;;10.10;;
17598;SDS011;8918;52.092;5.232;2023-08-06T05:08:24;12.27;;;10.60;;
17598;SDS011;8918;52.092;5.232;2023-08-06T05:10:50;11.27;;;9.75;;
17598;SDS011;8918;52.092;5.232;2023-08-06T05:13:15;12.57;;;10.98;;
17598;SDS011;8918;52.092;5.232;2023-08-06T05:15:41;13.55;;;10.55;;
17598;SDS011;8918;52.092;5.232;2023-08-06T05:18:08;12.18;;;10.88;;
17598;SDS011;8918;52.092;5.232;2023-08-06T05:20:37;11.50;;;10.13;;
17598;SDS011;8918;52.092;5.232;2023-08-06T05:23:07;12.75;;;10.45;;
17598;SDS011;8918;52.092;5.232;2023-08-06T05:25:34;13.52;;;11.75;;
17598;SDS011;8918;52.092;5.232;2023-08-06T05:28:00;12.90;;;10.95;;
17598;SDS011;8918;52.092;5.232;2023-08-06T05:30:27;14.25;;;10.70;;
17598;SDS011;8918;52.092;5.232;2023-08-06T05:32:52;13.35;;;11.07;;
17598;SDS011;8918;52.092;5.232;2023-08-06T05:35:18;14.20;;;11.43;;
17598;SDS011;8918;52.092;5.232;2023-08-06T05:37:44;16.35;;;12.20;;
17598;SDS011;8918;52.092;5.232;2023-08-06T05:40:09;13.00;;;11.55;;
17598;SDS011;8918;52.092;5.232;2023-08-06T05:42:35;14.60;;;11.02;;
17598;SDS011;8918;52.092;5.232;2023-08-06T05:45:00;15.10;;;11.70;;
17598;SDS011;8918;52.092;5.232;2023-08-06T05:47:26;12.23;;;10.70;;
17598;SDS011;8918;52.092;5.232;2023-08-06T05:49:52;15.02;;;11.70;;
17598;SDS011;8918;52.092;5.232;2023-08-06T05:52:17;14.63;;;12.10;;
17598;SDS011;8918;52.092;5.232;2023-08-06T05:54:43;13.13;;;11.48;;
17598;SDS011;8918;52.092;5.232;2023-08-06T05:57:09;16.17;;;12.50;;
17598;SDS011;8918;52.092;5.232;2023-08-06T05:59:34;17.55;;;12.77;;
17598;SDS011;8918;52.092;5.232;2023-08-06T06:02:00;15.38;;;12.52;;
17598;SDS011;8918;52.092;5.232;2023-08-06T06:04:25;16.77;;;13.13;;
17598;SDS011;8918;52.092;5.232;2023-08-06T06:06:51;14.38;;;12.23;;
17598;SDS011;8918;52.092;5.232;2023-08-06T06:09:16;14.75;;;12.25;;
17598;SDS011;8918;52.092;5.232;2023-08-06T06:11:42;14.80;;;12.13;;
17598;SDS011;8918;52.092;5.232;2023-08-06T06:14:08;13.75;;;11.35;;
17598;SDS011;8918;52.092;5.232;2023-08-06T06:16:34;15.85;;;12.32;;
17598;SDS011;8918;52.092;5.232;2023-08-06T06:18:59;14.48;;;11.80;;
17598;SDS011;8918;52.092;5.232;2023-08-06T06:21:25;14.35;;;12.32;;
17598;SDS011;8918;52.092;5.232;2023-08-06T06:23:50;11.35;;;9.55;;
17598;SDS011;8918;52.092;5.232;2023-08-06T06:26:16;11.27;;;9.60;;
17598;SDS011;8918;52.092;5.232;2023-08-06T06:28:43;10.30;;;8.75;;
17598;SDS011;8918;52.092;5.232;2023-08-06T06:31:09;8.93;;;6.55;;
17598;SDS011;8918;52.092;5.232;2023-08-06T06:33:35;5.78;;;5.18;;
17598;SDS011;8918;52.092;5.232;2023-08-06T06:36:00;5.55;;;4.25;;
17598;SDS011;8918;52.092;5.232;2023-08-06T06:38:28;4.05;;;3.65;;
17598;SDS011;8918;52.092;5.232;2023-08-06T06:40:54;4.05;;;3.65;;
17598;SDS011;8918;52.092;5.232;2023-08-06T06:43:20;4.03;;;3.63;;
17598;SDS011;8918;52.092;5.232;2023-08-06T06:45:46;5.10;;;3.90;;
17598;SDS011;8918;52.092;5.232;2023-08-06T06:48:12;4.00;;;3.63;;
17598;SDS011;8918;52.092;5.232;2023-08-06T06:50:37;4.18;;;3.78;;
17598;SDS011;8918;52.092;5.232;2023-08-06T06:53:04;4.10;;;3.70;;
17598;SDS011;8918;52.092;5.232;2023-08-06T06:55:30;4.22;;;3.72;;
17598;SDS011;8918;52.092;5.232;2023-08-06T06:57:55;3.97;;;3.58;;
17598;SDS011;8918;52.092;5.232;2023-08-06T07:00:21;3.75;;;3.45;;
17598;SDS011;8918;52.092;5.232;2023-08-06T07:02:47;3.70;;;3.40;;
17598;SDS011;8918;52.092;5.232;2023-08-06T07:05:14;3.72;;;3.42;;
17598;SDS011;8918;52.092;5.232;2023-08-06T07:07:40;3.45;;;3.15;;
17598;SDS011;8918;52.092;5.232;2023-08-06T07:10:06;3.47;;;3.13;;
17598;SDS011;8918;52.092;5.232;2023-08-06T07:12:31;3.72;;;3.40;;
17598;SDS011;8918;52.092;5.232;2023-08-06T07:14:57;3.88;;;3.30;;
17598;SDS011;8918;52.092;5.232;2023-08-06T07:17:23;3.63;;;3.33;;
17598;SDS011;8918;52.092;5.232;2023-08-06T07:19:49;5.10;;;3.78;;
17598;SDS011;8918;52.092;5.232;2023-08-06T07:22:14;4.40;;;3.95;;
17598;SDS011;8918;52.092;5.232;2023-08-06T07:24:40;4.60;;;4.05;;
17598;SDS011;8918;52.092;5.232;2023-08-06T07:27:05;4.45;;;4.03;;
17598;SDS011;8918;52.092;5.232;2023-08-06T07:29:31;4.18;;;3.75;;
17598;SDS011;8918;52.092;5.232;2023-08-06T07:31:57;4.75;;;4.25;;
17598;SDS011;8918;52.092;5.232;2023-08-06T07:34:22;4.78;;;4.28;;
17598;SDS011;8918;52.092;5.232;2023-08-06T07:36:48;5.45;;;4.72;;
17598;SDS011;8918;52.092;5.232;2023-08-06T07:39:15;5.88;;;4.93;;
17598;SDS011;8918;52.092;5.232;2023-08-06T07:41:41;5.82;;;5.22;;
17598;SDS011;8918;52.092;5.232;2023-08-06T07:44:07;5.63;;;5.00;;
17598;SDS011;8918;52.092;5.232;2023-08-06T07:46:33;6.00;;;5.40;;
17598;SDS011;8918;52.092;5.232;2023-08-06T07:48:58;6.93;;;5.40;;
17598;SDS011;8918;52.092;5.232;2023-08-06T07:51:24;5.38;;;4.88;;
17598;SDS011;8918;52.092;5.232;2023-08-06T07:53:49;6.53;;;5.40;;
17598;SDS011;8918;52.092;5.232;2023-08-06T07:56:15;5.38;;;4.88;;
17598;SDS011;8918;52.092;5.232;2023-08-06T07:58:41;4.70;;;4.10;;
17598;SDS011;8918;52.092;5.232;2023-08-06T08:01:06;5.05;;;4.03;;
17598;SDS011;8918;52.092;5.232;2023-08-06T08:03:32;4.22;;;3.58;;
17598;SDS011;8918;52.092;5.232;2023-08-06T08:05:58;5.53;;;3.95;;
17598;SDS011;8918;52.092;5.232;2023-08-06T08:08:24;5.43;;;3.70;;
17598;SDS011;8918;52.092;5.232;2023-08-06T08:10:49;4.13;;;3.72;;
17598;SDS011;8918;52.092;5.232;2023-08-06T08:13:15;7.55;;;3.88;;
17598;SDS011;8918;52.092;5.232;2023-08-06T08:15:41;5.20;;;3.60;;
17598;SDS011;8918;52.092;5.232;2023-08-06T08:18:07;3.95;;;3.28;;
17598;SDS011;8918;52.092;5.232;2023-08-06T08:20:33;5.20;;;3.78;;
17598;SDS011;8918;52.092;5.232;2023-08-06T08:23:00;5.05;;;3.92;;
17598;SDS011;8918;52.092;5.232;2023-08-06T08:25:26;5.32;;;3.70;;
17598;SDS011;8918;52.092;5.232;2023-08-06T08:27:52;4.80;;;3.72;;
17598;SDS011;8918;52.092;5.232;2023-08-06T08:30:18;5.70;;;4.32;;
17598;SDS011;8918;52.092;5.232;2023-08-06T08:32:44;6.35;;;4.30;;
17598;SDS011;8918;52.092;5.232;2023-08-06T08:35:10;5.05;;;4.00;;
17598;SDS011;8918;52.092;5.232;2023-08-06T08:37:37;5.78;;;4.53;;
17598;SDS011;8918;52.092;5.232;2023-08-06T08:40:04;6.00;;;4.45;;
17598;SDS011;8918;52.092;5.232;2023-08-06T08:42:31;6.30;;;4.80;;
17598;SDS011;8918;52.092;5.232;2023-08-06T08:44:57;6.05;;;4.93;;
17598;SDS011;8918;52.092;5.232;2023-08-06T08:47:22;5.40;;;4.75;;
17598;SDS011;8918;52.092;5.232;2023-08-06T08:49:51;7.22;;;5.00;;
17598;SDS011;8918;52.092;5.232;2023-08-06T08:52:19;7.57;;;5.30;;
17598;SDS011;8918;52.092;5.232;2023-08-06T08:54:46;5.50;;;4.90;;
17598;SDS011;8918;52.092;5.232;2023-08-06T08:57:16;8.15;;;6.18;;
17598;SDS011;8918;52.092;5.232;2023-08-06T08:59:42;7.43;;;5.75;;
17598;SDS011;8918;52.092;5.232;2023-08-06T09:02:08;6.82;;;6.13;;
17598;SDS011;8918;52.092;5.232;2023-08-06T09:04:37;6.40;;;5.63;;
17598;SDS011;8918;52.092;5.232;2023-08-06T09:07:03;6.90;;;5.72;;
17598;SDS011;8918;52.092;5.232;2023-08-06T09:09:33;8.25;;;6.40;;
17598;SDS011;8918;52.092;5.232;2023-08-06T09:12:04;7.43;;;6.07;;
17598;SDS011;8918;52.092;5.232;2023-08-06T09:14:35;7.53;;;5.85;;
17598;SDS011;8918;52.092;5.232;2023-08-06T09:17:01;8.40;;;6.60;;
17598;SDS011;8918;52.092;5.232;2023-08-06T09:19:26;7.05;;;5.65;;
17598;SDS011;8918;52.092;5.232;2023-08-06T09:21:52;8.32;;;5.82;;
17598;SDS011;8918;52.092;5.232;2023-08-06T09:24:20;8.07;;;6.15;;
17598;SDS011;8918;52.092;5.232;2023-08-06T09:26:46;7.80;;;5.95;;
17598;SDS011;8918;52.092;5.232;2023-08-06T09:29:12;7.55;;;6.10;;
17598;SDS011;8918;52.092;5.232;2023-08-06T09:31:47;7.35;;;5.97;;
17598;SDS011;8918;52.092;5.232;2023-08-06T09:34:17;9.13;;;6.03;;
17598;SDS011;8918;52.092;5.232;2023-08-06T09:36:46;6.85;;;5.75;;
17598;SDS011;8918;52.092;5.232;2023-08-06T09:39:17;7.85;;;5.63;;
17598;SDS011;8918;52.092;5.232;2023-08-06T09:41:47;8.57;;;5.97;;
17598;SDS011;8918;52.092;5.232;2023-08-06T09:44:16;8.68;;;5.47;;
17598;SDS011;8918;52.092;5.232;2023-08-06T09:46:53;7.57;;;5.72;;
17598;SDS011;8918;52.092;5.232;2023-08-06T09:49:24;8.43;;;5.60;;
17598;SDS011;8918;52.092;5.232;2023-08-06T09:51:52;8.70;;;5.38;;
17598;SDS011;8918;52.092;5.232;2023-08-06T09:54:20;6.95;;;5.28;;
17598;SDS011;8918;52.092;5.232;2023-08-06T09:56:47;7.60;;;5.05;;
17598;SDS011;8918;52.092;5.232;2023-08-06T09:59:13;8.05;;;5.30;;
17598;SDS011;8918;52.092;5.232;2023-08-06T10:01:41;6.85;;;5.22;;
17598;SDS011;8918;52.092;5.232;2023-08-06T10:04:07;7.03;;;5.40;;
17598;SDS011;8918;52.092;5.232;2023-08-06T10:06:34;7.72;;;4.80;;
17598;SDS011;8918;52.092;5.232;2023-08-06T10:09:06;6.30;;;5.00;;
17598;SDS011;8918;52.092;5.232;2023-08-06T10:11:33;8.05;;;5.10;;
17598;SDS011;8918;52.092;5.232;2023-08-06T10:14:13;7.30;;;4.63;;
17598;SDS011;8918;52.092;5.232;2023-08-06T10:16:43;7.43;;;4.53;;
17598;SDS011;8918;52.092;5.232;2023-08-06T10:19:10;5.90;;;4.47;;
17598;SDS011;8918;52.092;5.232;2023-08-06T10:21:40;6.95;;;4.30;;
17598;SDS011;8918;52.092;5.232;2023-08-06T10:24:09;6.57;;;4.10;;
17598;SDS011;8918;52.092;5.232;2023-08-06T10:26:39;6.38;;;4.28;;
17598;SDS011;8918;52.092;5.232;2023-08-06T10:32:09;7.10;;;3.80;;
17598;SDS011;8918;52.092;5.232;2023-08-06T10:37:22;5.25;;;3.63;;
17598;SDS011;8918;52.092;5.232;2023-08-06T10:39:49;8.23;;;3.72;;
17598;SDS011;8918;52.092;5.232;2023-08-06T10:42:22;5.18;;;3.25;;
17598;SDS011;8918;52.092;5.232;2023-08-06T10:45:11;3.78;;;3.05;;
17598;SDS011;8918;52.092;5.232;2023-08-06T10:47:44;6.40;;;3.15;;
17598;SDS011;8918;52.092;5.232;2023-08-06T10:50:11;5.57;;;3.30;;
17598;SDS011;8918;52.092;5.232;2023-08-06T10:52:39;4.75;;;3.17;;
17598;SDS011;8918;52.092;5.232;2023-08-06T10:55:05;4.38;;;3.13;;
17598;SDS011;8918;52.092;5.232;2023-08-06T10:57:31;4.95;;;3.25;;
17598;SDS011;8918;52.092;5.232;2023-08-06T10:59:56;4.10;;;2.70;;
17598;SDS011;8918;52.092;5.232;2023-08-06T11:02:22;4.00;;;2.70;;
17598;SDS011;8918;52.092;5.232;2023-08-06T11:04:48;4.28;;;2.63;;
17598;SDS011;8918;52.092;5.232;2023-08-06T11:07:14;4.38;;;2.60;;
17598;SDS011;8918;52.092;5.232;2023-08-06T11:09:39;5.20;;;2.83;;
17598;SDS011;8918;52.092;5.232;2023-08-06T11:12:11;5.00;;;2.70;;
17598;SDS011;8918;52.092;5.232;2023-08-06T11:14:37;4.28;;;2.40;;
17598;SDS011;8918;52.092;5.232;2023-08-06T11:17:04;4.78;;;2.20;;
17598;SDS011;8918;52.092;5.232;2023-08-06T11:19:30;5.82;;;2.55;;
17598;SDS011;8918;52.092;5.232;2023-08-06T11:21:56;4.90;;;2.05;;
17598;SDS011;8918;52.092;5.232;2023-08-06T11:24:23;3.33;;;2.00;;
17598;SDS011;8918;52.092;5.232;2023-08-06T11:26:49;3.60;;;2.30;;
17598;SDS011;8918;52.092;5.232;2023-08-06T11:29:15;2.95;;;2.25;;
17598;SDS011;8918;52.092;5.232;2023-08-06T11:31:41;2.97;;;2.15;;
17598;SDS011;8918;52.092;5.232;2023-08-06T11:34:06;2.58;;;2.10;;
17598;SDS011;8918;52.092;5.232;2023-08-06T11:36:33;4.07;;;2.00;;
17598;SDS011;8918;52.092;5.232;2023-08-06T11:39:01;3.40;;;2.20;;
17598;SDS011;8918;52.092;5.232;2023-08-06T11:41:31;3.17;;;1.90;;
17598;SDS011;8918;52.092;5.232;2023-08-06T11:43:57;4.22;;;1.80;;
17598;SDS011;8918;52.092;5.232;2023-08-06T11:46:24;5.30;;;2.13;;
17598;SDS011;8918;52.092;5.232;2023-08-06T11:48:50;3.67;;;1.70;;
17598;SDS011;8918;52.092;5.232;2023-08-06T11:51:23;2.63;;;1.70;;
17598;SDS011;8918;52.092;5.232;2023-08-06T11:53:55;4.10;;;1.83;;
17598;SDS011;8918;52.092;5.232;2023-08-06T11:56:22;3.30;;;1.77;;
17598;SDS011;8918;52.092;5.232;2023-08-06T11:58:48;2.65;;;1.80;;
17598;SDS011;8918;52.092;5.232;2023-08-06T12:01:16;4.38;;;2.00;;
17598;SDS011;8918;52.092;5.232;2023-08-06T12:03:43;3.78;;;1.70;;
17598;SDS011;8918;52.092;5.232;2023-08-06T12:06:09;2.47;;;1.60;;
17598;SDS011;8918;52.092;5.232;2023-08-06T12:08:34;4.20;;;1.60;;
17598;SDS011;8918;52.092;5.232;2023-08-06T12:11:00;3.50;;;1.90;;
17598;SDS011;8918;52.092;5.232;2023-08-06T12:13:26;1.80;;;1.50;;
17598;SDS011;8918;52.092;5.232;2023-08-06T12:15:53;2.28;;;1.70;;
17598;SDS011;8918;52.092;5.232;2023-08-06T12:18:19;4.53;;;2.05;;
17598;SDS011;8918;52.092;5.232;2023-08-06T12:20:45;3.28;;;1.30;;
17598;SDS011;8918;52.092;5.232;2023-08-06T12:23:10;2.92;;;1.38;;
17598;SDS011;8918;52.092;5.232;2023-08-06T12:25:40;2.47;;;1.98;;
17598;SDS011;8918;52.092;5.232;2023-08-06T12:28:06;3.90;;;1.60;;
17598;SDS011;8918;52.092;5.232;2023-08-06T12:30:32;4.90;;;2.60;;
17598;SDS011;8918;52.092;5.232;2023-08-06T12:32:58;2.45;;;2.05;;
17598;SDS011;8918;52.092;5.232;2023-08-06T12:35:24;3.97;;;2.03;;
17598;SDS011;8918;52.092;5.232;2023-08-06T12:37:50;4.68;;;1.75;;
17598;SDS011;8918;52.092;5.232;2023-08-06T12:40:19;2.92;;;1.67;;
17598;SDS011;8918;52.092;5.232;2023-08-06T12:42:45;3.25;;;1.77;;
17598;SDS011;8918;52.092;5.232;2023-08-06T12:45:11;2.55;;;1.90;;
17598;SDS011;8918;52.092;5.232;2023-08-06T12:47:36;3.25;;;2.00;;
17598;SDS011;8918;52.092;5.232;2023-08-06T12:50:02;2.95;;;1.75;;
17598;SDS011;8918;52.092;5.232;2023-08-06T12:52:28;3.05;;;1.73;;
17598;SDS011;8918;52.092;5.232;2023-08-06T12:54:54;3.90;;;2.13;;
17598;SDS011;8918;52.092;5.232;2023-08-06T12:57:20;2.75;;;1.90;;
17598;SDS011;8918;52.092;5.232;2023-08-06T12:59:45;3.42;;;2.00;;
17598;SDS011;8918;52.092;5.232;2023-08-06T13:02:11;3.92;;;1.98;;
17598;SDS011;8918;52.092;5.232;2023-08-06T13:04:36;3.10;;;2.10;;
17598;SDS011;8918;52.092;5.232;2023-08-06T13:07:02;4.82;;;1.98;;
17598;SDS011;8918;52.092;5.232;2023-08-06T13:09:28;3.15;;;2.20;;
17598;SDS011;8918;52.092;5.232;2023-08-06T13:11:54;2.65;;;1.75;;
17598;SDS011;8918;52.092;5.232;2023-08-06T13:14:20;2.45;;;1.88;;
17598;SDS011;8918;52.092;5.232;2023-08-06T13:16:46;3.65;;;2.00;;
17598;SDS011;8918;52.092;5.232;2023-08-06T13:19:11;2.58;;;1.80;;
17598;SDS011;8918;52.092;5.232;2023-08-06T13:24:05;4.30;;;2.10;;
17598;SDS011;8918;52.092;5.232;2023-08-06T13:26:31;3.20;;;1.67;;
17598;SDS011;8918;52.092;5.232;2023-08-06T13:29:00;3.90;;;2.08;;
17598;SDS011;8918;52.092;5.232;2023-08-06T13:31:27;2.38;;;1.90;;
17598;SDS011;8918;52.092;5.232;2023-08-06T13:33:56;3.28;;;2.08;;
17598;SDS011;8918;52.092;5.232;2023-08-06T13:36:23;2.80;;;2.15;;
17598;SDS011;8918;52.092;5.232;2023-08-06T13:38:49;3.20;;;2.17;;
17598;SDS011;8918;52.092;5.232;2023-08-06T13:41:15;3.63;;;2.17;;
17598;SDS011;8918;52.092;5.232;2023-08-06T13:43:41;2.55;;;2.03;;
17598;SDS011;8918;52.092;5.232;2023-08-06T13:46:06;3.15;;;2.45;;
17598;SDS011;8918;52.092;5.232;2023-08-06T13:48:32;2.92;;;2.17;;
17598;SDS011;8918;52.092;5.232;2023-08-06T13:50:58;5.32;;;2.50;;
17598;SDS011;8918;52.092;5.232;2023-08-06T13:53:24;4.05;;;2.42;;
17598;SDS011;8918;52.092;5.232;2023-08-06T13:55:54;4.03;;;2.50;;
17598;SDS011;8918;52.092;5.232;2023-08-06T13:58:21;5.63;;;2.63;;
17598;SDS011;8918;52.092;5.232;2023-08-06T14:00:47;4.82;;;2.60;;
17598;SDS011;8918;52.092;5.232;2023-08-06T14:03:13;3.33;;;2.50;;
17598;SDS011;8918;52.092;5.232;2023-08-06T14:05:38;4.75;;;2.78;;
17598;SDS011;8918;52.092;5.232;2023-08-06T14:08:04;3.13;;;2.53;;
17598;SDS011;8918;52.092;5.232;2023-08-06T14:10:30;3.47;;;2.63;;
17598;SDS011;8918;52.092;5.232;2023-08-06T14:12:55;3.75;;;2.50;;
17598;SDS011;8918;52.092;5.232;2023-08-06T14:15:21;4.95;;;2.60;;
17598;SDS011;8918;52.092;5.232;2023-08-06T14:17:47;4.25;;;2.80;;
17598;SDS011;8918;52.092;5.232;2023-08-06T14:20:12;4.38;;;2.65;;
17598;SDS011;8918;52.092;5.232;2023-08-06T14:22:38;4.32;;;2.72;;
17598;SDS011;8918;52.092;5.232;2023-08-06T14:25:04;3.42;;;2.60;;
17598;SDS011;8918;52.092;5.232;2023-08-06T14:27:30;4.35;;;2.58;;
17598;SDS011;8918;52.092;5.232;2023-08-06T14:29:55;4.55;;;2.30;;
17598;SDS011;8918;52.092;5.232;2023-08-06T14:32:21;4.32;;;2.40;;
17598;SDS011;8918;52.092;5.232;2023-08-06T14:34:47;4.53;;;2.45;;
17598;SDS011;8918;52.092;5.232;2023-08-06T14:37:12;3.17;;;2.30;;
17598;SDS011;8918;52.092;5.232;2023-08-06T14:39:38;3.17;;;2.33;;
17598;SDS011;8918;52.092;5.232;2023-08-06T14:42:04;4.65;;;2.53;;
17598;SDS011;8918;52.092;5.232;2023-08-06T14:44:30;3.47;;;2.58;;
17598;SDS011;8918;52.092;5.232;2023-08-06T14:46:56;4.22;;;2.15;;
17598;SDS011;8918;52.092;5.232;2023-08-06T14:49:21;3.20;;;1.75;;
17598;SDS011;8918;52.092;5.232;2023-08-06T14:51:48;6.15;;;1.60;;
17598;SDS011;8918;52.092;5.232;2023-08-06T14:54:14;4.00;;;1.50;;
17598;SDS011;8918;52.092;5.232;2023-08-06T14:56:39;3.17;;;1.48;;
17598;SDS011;8918;52.092;5.232;2023-08-06T14:59:05;3.38;;;1.52;;
17598;SDS011;8918;52.092;5.232;2023-08-06T15:01:30;5.55;;;1.73;;
17598;SDS011;8918;52.092;5.232;2023-08-06T15:03:56;4.82;;;1.70;;
17598;SDS011;8918;52.092;5.232;2023-08-06T15:06:22;6.68;;;1.77;;